Chemstar Masa — 3FGM7 — position and weather

sailwx.info

Track history (hours):
 
Tides and Currents Weather Stations Pressure Air Temp Water Temp Dewpoint Dewpoint Depression Visibility Wind Speed Wind Dir Waves Ship Positions

Chemstar Masa

Last reported at 2014-Sep-21 14:33 UTC. Time now 2014-Sep-23 12:27 UTC.
Position N 01°14' E 104°01'.

Length 141 m; draft 10.1 m.

Type: Tanker. MMSI: 353456000.

Date/timePositionNaut miles runAvg speedWind from/ knotsBaromVisibWave heightAir tempDewpointWater temp
2014-Sep-21 14:33N 01°14' E 104°01'1413.9
2014-Sep-21 13:34N 01°10' E 103°48'1312.6
2014-Sep-21 12:31N 01°04' E 103°37'8 8.5
2014-Sep-21 11:33N 01°12' E 103°38'2 2.0
2014-Sep-21 10:30N 01°14' E 103°39'0 0.0
2014-Sep-21 09:33N 01°14' E 103°39'0 0.0
2014-Sep-21 08:33N 01°14' E 103°39'0 0.1
2014-Sep-21 07:30N 01°14' E 103°39'0 0.1
2014-Sep-21 06:33N 01°14' E 103°39'0 0.0
2014-Sep-21 05:30N 01°14' E 103°39'0 0.1
2014-Sep-21 04:33N 01°14' E 103°39'1 0.9
2014-Sep-21 03:34N 01°13' E 103°40'9 9.3
2014-Sep-21 02:34N 01°11' E 103°31'  
Track history (hours):
 
Tides and Currents Weather Stations Pressure Air Temp Water Temp Dewpoint Dewpoint Depression Visibility Wind Speed Wind Dir Waves Ship Positions

Chemstar Masa

Last reported at 2014-Sep-21 14:33 UTC. Time now 2014-Sep-23 12:27 UTC.
Position N 01°14' E 104°01'.

Length 141 m; draft 10.1 m.

Type: Tanker. MMSI: 353456000.

Date/timePositionNaut miles runAvg speedWind from/ knotsBaromVisibWave heightAir tempDewpointWater temp
2014-Sep-21 14:33N 01°14' E 104°01'1413.9
2014-Sep-21 13:34N 01°10' E 103°48'1312.6
2014-Sep-21 12:31N 01°04' E 103°37'8 8.5
2014-Sep-21 11:33N 01°12' E 103°38'2 2.0
2014-Sep-21 10:30N 01°14' E 103°39'0 0.0
2014-Sep-21 09:33N 01°14' E 103°39'0 0.0
2014-Sep-21 08:33N 01°14' E 103°39'0 0.1
2014-Sep-21 07:30N 01°14' E 103°39'0 0.1
2014-Sep-21 06:33N 01°14' E 103°39'0 0.0
2014-Sep-21 05:30N 01°14' E 103°39'0 0.1
2014-Sep-21 04:33N 01°14' E 103°39'1 0.9
2014-Sep-21 03:34N 01°13' E 103°40'9 9.3
2014-Sep-21 02:34N 01°11' E 103°31'  

Dump ship's entire track history